Terminal Aerodrome Forecast
Issued by NWS

Home | Current Version | Previous Version | Text Only | Print | Product List | Glossary On
Versions: 1 2 3 4 5 6 7 8 9 10 11 12
000
FTUS45 KBOI 192328
TAFMYL
TAF
KMYL 192328Z 2000/2024 20011G18KT P6SM BKN100 OVC200
     FM200200 28007KT P6SM SCT060 OVC090
     FM200500 33006KT P6SM SCT060 BKN150
     FM201800 22005KT P6SM SCT200=

USA.gov is the U.S. government's official web portal to all federal, state and local government web resources and services.